Benalla, Victoria

2:02 AM AEST on May 07, 2015 (GMT +1000)
Benalla | | Change Station
CLOSE
Current Station
Personal Weather Station
Location: Benalla, VIC
Elevation: 568 ft
Nearby Weather Stations

Elev 568 ft 36.56 °S, 146.00 °E | Updated 17 seconds ago

Clear
Clear
47.7 °F
Feels Like 48 °F
N
1.6
Wind Variable Wind from South
Gusts 2.7 mph

Today
High -- | Low -- °F
--% Chance of Precip.
Yesterday
High -- | Low -- °F
Precip. -- in
6:59 AM 5:25 PM
Waning Gibbous, 93% visible
Pressure 30.06 in
Visibility -9999.0 miles
Clouds
Windchill 48 °F
Dew Point 44 °F
Humidity 88%
Rainfall 0.00 in
Snow Depth Not available.
UV Not available.
Pollen Not available.
Air Quality Not available.
Flu Activity Not available.
METAR YWGT 061600Z AUTO 28007KT //// // ////// 09/06 Q1018

More Conditions Fewer Conditions

Pressure 30.06 in
Visibility -9999.0 miles
Clouds
Windchill 48 °F
Dew Point 44 °F
Humidity 88%
Rainfall 0.00 in
Snow Depth Not available.
UV Not available.
Pollen Not available.
Air Quality Not available.
Flu Activity Not available.
METAR YWGT 061600Z AUTO 28007KT //// // ////// 09/06 Q1018

More Conditions Fewer Conditions

10-Day Weather Forecast

Almanac

Astronomy

May. 07, 2015 Rise Set
Actual Time
Civil Twilight
Nautical Twilight
Astronomical Twilight
Moon
Length of Visible Light
Length of Day
Tomorrow will be .
, % of the Moon is Illuminated

Today's Extremes

Country Highs Country Lows

Community

WunderPhotos

Upload Photos

1,818,943 photos uploaded!

WunderBlogs® & News

Nearby

Air Quality

  Air Quality AQ Index Pollutant
Not available.

Snow Depth

Station Depth Elevation

Earthquake Activity

City Distance Mag. Time & Date
Minimum magnitude displayed is 2.5.

Coastal Water Temperatures

Place Temperature

Stations

Nearby Weather Stations

Station Location Temp. Windchill Dew Point Humidity Wind Precip. Elev Updated Type